sensor_id;sensor_type;location;lat;lon;timestamp;P1;durP1;ratioP1;P2;durP2;ratioP2
48042;SDS011;33988;47.992;8.820;2023-03-23T00:01:12;2.70;;;2.10;;
48042;SDS011;33988;47.992;8.820;2023-03-23T00:03:47;3.20;;;2.25;;
48042;SDS011;33988;47.992;8.820;2023-03-23T00:06:15;3.65;;;1.95;;
48042;SDS011;33988;47.992;8.820;2023-03-23T00:08:52;4.32;;;2.17;;
48042;SDS011;33988;47.992;8.820;2023-03-23T00:11:28;2.95;;;2.05;;
48042;SDS011;33988;47.992;8.820;2023-03-23T00:13:56;3.65;;;2.28;;
48042;SDS011;33988;47.992;8.820;2023-03-23T00:16:26;2.60;;;2.20;;
48042;SDS011;33988;47.992;8.820;2023-03-23T00:18:57;2.43;;;2.13;;
48042;SDS011;33988;47.992;8.820;2023-03-23T00:21:35;3.40;;;2.40;;
48042;SDS011;33988;47.992;8.820;2023-03-23T00:24:10;2.60;;;2.30;;
48042;SDS011;33988;47.992;8.820;2023-03-23T00:26:42;3.45;;;2.60;;
48042;SDS011;33988;47.992;8.820;2023-03-23T00:31:49;3.30;;;2.60;;
48042;SDS011;33988;47.992;8.820;2023-03-23T00:34:16;3.10;;;2.35;;
48042;SDS011;33988;47.992;8.820;2023-03-23T00:36:47;4.57;;;2.63;;
48042;SDS011;33988;47.992;8.820;2023-03-23T00:39:16;3.58;;;2.75;;
48042;SDS011;33988;47.992;8.820;2023-03-23T00:41:45;4.65;;;3.10;;
48042;SDS011;33988;47.992;8.820;2023-03-23T00:44:12;7.20;;;2.97;;
48042;SDS011;33988;47.992;8.820;2023-03-23T00:46:45;5.38;;;3.25;;
48042;SDS011;33988;47.992;8.820;2023-03-23T00:49:19;4.10;;;2.85;;
48042;SDS011;33988;47.992;8.820;2023-03-23T00:51:52;4.57;;;3.25;;
48042;SDS011;33988;47.992;8.820;2023-03-23T00:54:21;3.92;;;3.28;;
48042;SDS011;33988;47.992;8.820;2023-03-23T00:56:48;3.88;;;2.80;;
48042;SDS011;33988;47.992;8.820;2023-03-23T00:59:15;4.68;;;2.80;;
48042;SDS011;33988;47.992;8.820;2023-03-23T01:01:45;4.47;;;3.03;;
48042;SDS011;33988;47.992;8.820;2023-03-23T01:04:12;7.22;;;2.92;;
48042;SDS011;33988;47.992;8.820;2023-03-23T01:06:40;4.05;;;2.90;;
48042;SDS011;33988;47.992;8.820;2023-03-23T01:09:10;4.75;;;2.83;;
48042;SDS011;33988;47.992;8.820;2023-03-23T01:11:45;3.42;;;2.63;;
48042;SDS011;33988;47.992;8.820;2023-03-23T01:14:13;3.65;;;2.65;;
48042;SDS011;33988;47.992;8.820;2023-03-23T01:16:43;4.50;;;2.53;;
48042;SDS011;33988;47.992;8.820;2023-03-23T01:19:10;5.82;;;3.10;;
48042;SDS011;33988;47.992;8.820;2023-03-23T01:21:40;3.38;;;3.03;;
48042;SDS011;33988;47.992;8.820;2023-03-23T01:24:06;4.05;;;2.75;;
48042;SDS011;33988;47.992;8.820;2023-03-23T01:26:35;3.28;;;2.63;;
48042;SDS011;33988;47.992;8.820;2023-03-23T01:29:01;3.97;;;2.85;;
48042;SDS011;33988;47.992;8.820;2023-03-23T01:31:27;5.30;;;3.00;;
48042;SDS011;33988;47.992;8.820;2023-03-23T01:33:55;3.85;;;2.88;;
48042;SDS011;33988;47.992;8.820;2023-03-23T01:36:24;3.78;;;2.28;;
48042;SDS011;33988;47.992;8.820;2023-03-23T01:38:54;4.25;;;2.60;;
48042;SDS011;33988;47.992;8.820;2023-03-23T01:41:20;4.40;;;2.85;;
48042;SDS011;33988;47.992;8.820;2023-03-23T01:43:56;3.25;;;2.70;;
48042;SDS011;33988;47.992;8.820;2023-03-23T01:46:29;4.45;;;2.95;;
48042;SDS011;33988;47.992;8.820;2023-03-23T01:49:02;3.53;;;2.45;;
48042;SDS011;33988;47.992;8.820;2023-03-23T01:51:45;4.90;;;2.97;;
48042;SDS011;33988;47.992;8.820;2023-03-23T01:54:16;4.97;;;2.90;;
48042;SDS011;33988;47.992;8.820;2023-03-23T01:56:50;3.63;;;2.95;;
48042;SDS011;33988;47.992;8.820;2023-03-23T01:59:30;4.13;;;3.00;;
48042;SDS011;33988;47.992;8.820;2023-03-23T02:01:58;4.65;;;3.20;;
48042;SDS011;33988;47.992;8.820;2023-03-23T02:04:27;6.43;;;3.40;;
48042;SDS011;33988;47.992;8.820;2023-03-23T02:06:56;4.88;;;3.47;;
48042;SDS011;33988;47.992;8.820;2023-03-23T02:09:24;4.35;;;2.88;;
48042;SDS011;33988;47.992;8.820;2023-03-23T02:11:50;5.65;;;3.03;;
48042;SDS011;33988;47.992;8.820;2023-03-23T02:14:18;5.05;;;3.00;;
48042;SDS011;33988;47.992;8.820;2023-03-23T02:41:19;4.00;;;2.92;;
48042;SDS011;33988;47.992;8.820;2023-03-23T02:43:48;4.07;;;2.97;;
48042;SDS011;33988;47.992;8.820;2023-03-23T02:46:15;5.65;;;3.10;;
48042;SDS011;33988;47.992;8.820;2023-03-23T02:48:42;5.35;;;3.13;;
48042;SDS011;33988;47.992;8.820;2023-03-23T02:51:13;5.25;;;3.20;;
48042;SDS011;33988;47.992;8.820;2023-03-23T02:53:43;4.60;;;3.00;;
48042;SDS011;33988;47.992;8.820;2023-03-23T02:56:12;5.22;;;3.03;;
48042;SDS011;33988;47.992;8.820;2023-03-23T02:58:39;3.95;;;2.45;;
48042;SDS011;33988;47.992;8.820;2023-03-23T03:04:01;4.30;;;2.78;;
48042;SDS011;33988;47.992;8.820;2023-03-23T03:12:08;5.55;;;2.75;;
48042;SDS011;33988;47.992;8.820;2023-03-23T03:15:08;6.18;;;3.17;;
48042;SDS011;33988;47.992;8.820;2023-03-23T03:17:51;4.47;;;2.80;;
48042;SDS011;33988;47.992;8.820;2023-03-23T03:20:38;5.10;;;2.90;;
48042;SDS011;33988;47.992;8.820;2023-03-23T03:23:11;5.10;;;3.00;;
48042;SDS011;33988;47.992;8.820;2023-03-23T03:25:39;3.53;;;2.63;;
48042;SDS011;33988;47.992;8.820;2023-03-23T03:28:13;5.22;;;3.13;;
48042;SDS011;33988;47.992;8.820;2023-03-23T03:30:47;4.45;;;3.05;;
48042;SDS011;33988;47.992;8.820;2023-03-23T03:33:20;4.78;;;2.90;;
48042;SDS011;33988;47.992;8.820;2023-03-23T03:35:51;4.75;;;2.80;;
48042;SDS011;33988;47.992;8.820;2023-03-23T03:38:19;3.35;;;3.05;;
48042;SDS011;33988;47.992;8.820;2023-03-23T03:40:45;4.05;;;3.00;;
48042;SDS011;33988;47.992;8.820;2023-03-23T03:43:16;4.55;;;3.33;;
48042;SDS011;33988;47.992;8.820;2023-03-23T03:45:42;5.88;;;3.28;;
48042;SDS011;33988;47.992;8.820;2023-03-23T03:48:08;3.25;;;2.63;;
48042;SDS011;33988;47.992;8.820;2023-03-23T03:50:37;3.28;;;2.80;;
48042;SDS011;33988;47.992;8.820;2023-03-23T03:53:03;4.10;;;2.97;;
48042;SDS011;33988;47.992;8.820;2023-03-23T03:55:31;6.60;;;3.50;;
48042;SDS011;33988;47.992;8.820;2023-03-23T03:58:01;4.38;;;3.00;;
48042;SDS011;33988;47.992;8.820;2023-03-23T04:00:30;3.72;;;2.63;;
48042;SDS011;33988;47.992;8.820;2023-03-23T04:02:58;3.72;;;2.88;;
48042;SDS011;33988;47.992;8.820;2023-03-23T04:05:27;3.72;;;2.83;;
48042;SDS011;33988;47.992;8.820;2023-03-23T04:07:55;4.47;;;3.25;;
48042;SDS011;33988;47.992;8.820;2023-03-23T04:10:27;4.53;;;3.33;;
48042;SDS011;33988;47.992;8.820;2023-03-23T04:12:54;4.07;;;2.78;;
48042;SDS011;33988;47.992;8.820;2023-03-23T04:15:20;3.92;;;2.92;;
48042;SDS011;33988;47.992;8.820;2023-03-23T04:17:52;5.30;;;3.08;;
48042;SDS011;33988;47.992;8.820;2023-03-23T04:20:18;4.07;;;2.67;;
48042;SDS011;33988;47.992;8.820;2023-03-23T04:22:46;4.13;;;2.95;;
48042;SDS011;33988;47.992;8.820;2023-03-23T04:25:17;3.78;;;2.50;;
48042;SDS011;33988;47.992;8.820;2023-03-23T04:27:48;5.28;;;2.85;;
48042;SDS011;33988;47.992;8.820;2023-03-23T04:30:19;3.55;;;2.70;;
48042;SDS011;33988;47.992;8.820;2023-03-23T04:32:47;3.47;;;2.42;;
48042;SDS011;33988;47.992;8.820;2023-03-23T04:35:18;4.40;;;2.70;;
48042;SDS011;33988;47.992;8.820;2023-03-23T04:37:52;5.30;;;2.50;;
48042;SDS011;33988;47.992;8.820;2023-03-23T04:40:19;4.35;;;2.60;;
48042;SDS011;33988;47.992;8.820;2023-03-23T04:42:46;4.28;;;2.30;;
48042;SDS011;33988;47.992;8.820;2023-03-23T04:45:13;6.25;;;2.50;;
48042;SDS011;33988;47.992;8.820;2023-03-23T04:47:47;4.20;;;2.70;;
48042;SDS011;33988;47.992;8.820;2023-03-23T04:50:23;3.22;;;2.30;;
48042;SDS011;33988;47.992;8.820;2023-03-23T04:52:58;3.83;;;2.58;;
48042;SDS011;33988;47.992;8.820;2023-03-23T04:55:29;6.35;;;4.15;;
48042;SDS011;33988;47.992;8.820;2023-03-23T04:58:01;3.92;;;2.70;;
48042;SDS011;33988;47.992;8.820;2023-03-23T05:00:34;3.28;;;2.70;;
48042;SDS011;33988;47.992;8.820;2023-03-23T05:03:01;5.18;;;2.47;;
48042;SDS011;33988;47.992;8.820;2023-03-23T05:05:27;5.63;;;2.80;;
48042;SDS011;33988;47.992;8.820;2023-03-23T05:07:57;3.60;;;2.50;;
48042;SDS011;33988;47.992;8.820;2023-03-23T05:10:23;4.03;;;2.60;;
48042;SDS011;33988;47.992;8.820;2023-03-23T05:12:52;3.88;;;2.75;;
48042;SDS011;33988;47.992;8.820;2023-03-23T05:15:19;5.43;;;2.60;;
48042;SDS011;33988;47.992;8.820;2023-03-23T05:17:47;4.50;;;2.72;;
48042;SDS011;33988;47.992;8.820;2023-03-23T05:20:14;5.90;;;2.63;;
48042;SDS011;33988;47.992;8.820;2023-03-23T05:22:45;3.80;;;2.97;;
48042;SDS011;33988;47.992;8.820;2023-03-23T05:25:14;5.03;;;3.60;;
48042;SDS011;33988;47.992;8.820;2023-03-23T05:27:45;6.30;;;4.72;;
48042;SDS011;33988;47.992;8.820;2023-03-23T05:30:20;5.18;;;3.35;;
48042;SDS011;33988;47.992;8.820;2023-03-23T05:32:47;5.65;;;3.25;;
48042;SDS011;33988;47.992;8.820;2023-03-23T05:35:16;7.72;;;3.22;;
48042;SDS011;33988;47.992;8.820;2023-03-23T05:37:44;4.25;;;2.90;;
48042;SDS011;33988;47.992;8.820;2023-03-23T05:40:13;6.22;;;3.30;;
48042;SDS011;33988;47.992;8.820;2023-03-23T05:45:14;11.23;;;3.80;;
48042;SDS011;33988;47.992;8.820;2023-03-23T05:47:43;7.88;;;3.88;;
48042;SDS011;33988;47.992;8.820;2023-03-23T05:50:09;6.60;;;3.47;;
48042;SDS011;33988;47.992;8.820;2023-03-23T05:52:39;5.13;;;3.33;;
48042;SDS011;33988;47.992;8.820;2023-03-23T05:55:07;5.18;;;3.20;;
48042;SDS011;33988;47.992;8.820;2023-03-23T05:57:34;4.90;;;3.15;;
48042;SDS011;33988;47.992;8.820;2023-03-23T06:00:00;3.78;;;3.10;;
48042;SDS011;33988;47.992;8.820;2023-03-23T06:02:39;5.35;;;3.58;;
48042;SDS011;33988;47.992;8.820;2023-03-23T06:05:09;8.35;;;3.90;;
48042;SDS011;33988;47.992;8.820;2023-03-23T06:07:35;5.40;;;3.00;;
48042;SDS011;33988;47.992;8.820;2023-03-23T06:10:03;6.10;;;2.85;;
48042;SDS011;33988;47.992;8.820;2023-03-23T06:12:34;6.00;;;2.80;;
48042;SDS011;33988;47.992;8.820;2023-03-23T06:15:01;3.85;;;3.10;;
48042;SDS011;33988;47.992;8.820;2023-03-23T06:17:31;4.38;;;2.97;;
48042;SDS011;33988;47.992;8.820;2023-03-23T06:19:58;4.63;;;2.88;;
48042;SDS011;33988;47.992;8.820;2023-03-23T06:22:25;5.82;;;2.85;;
48042;SDS011;33988;47.992;8.820;2023-03-23T06:24:51;3.97;;;3.30;;
48042;SDS011;33988;47.992;8.820;2023-03-23T06:27:17;5.68;;;3.22;;
48042;SDS011;33988;47.992;8.820;2023-03-23T06:29:43;5.63;;;3.15;;
48042;SDS011;33988;47.992;8.820;2023-03-23T06:32:11;3.42;;;2.70;;
48042;SDS011;33988;47.992;8.820;2023-03-23T06:34:43;6.95;;;2.88;;
48042;SDS011;33988;47.992;8.820;2023-03-23T06:37:11;4.07;;;2.78;;
48042;SDS011;33988;47.992;8.820;2023-03-23T06:39:37;5.65;;;3.10;;
48042;SDS011;33988;47.992;8.820;2023-03-23T06:42:03;3.63;;;3.22;;
48042;SDS011;33988;47.992;8.820;2023-03-23T06:44:33;4.75;;;3.70;;
48042;SDS011;33988;47.992;8.820;2023-03-23T06:46:59;5.10;;;2.85;;
48042;SDS011;33988;47.992;8.820;2023-03-23T06:49:25;5.85;;;2.80;;
48042;SDS011;33988;47.992;8.820;2023-03-23T06:51:51;7.38;;;2.85;;
48042;SDS011;33988;47.992;8.820;2023-03-23T06:54:17;6.53;;;3.47;;
48042;SDS011;33988;47.992;8.820;2023-03-23T06:56:42;4.45;;;3.30;;
48042;SDS011;33988;47.992;8.820;2023-03-23T06:59:11;4.55;;;3.13;;
48042;SDS011;33988;47.992;8.820;2023-03-23T07:01:37;5.30;;;3.25;;
48042;SDS011;33988;47.992;8.820;2023-03-23T07:04:03;5.20;;;3.45;;
48042;SDS011;33988;47.992;8.820;2023-03-23T07:06:29;4.78;;;3.22;;
48042;SDS011;33988;47.992;8.820;2023-03-23T07:08:55;6.75;;;3.25;;
48042;SDS011;33988;47.992;8.820;2023-03-23T07:11:23;5.70;;;3.45;;
48042;SDS011;33988;47.992;8.820;2023-03-23T07:13:51;7.53;;;3.50;;
48042;SDS011;33988;47.992;8.820;2023-03-23T07:16:21;6.35;;;3.80;;
48042;SDS011;33988;47.992;8.820;2023-03-23T07:18:47;7.18;;;3.97;;
48042;SDS011;33988;47.992;8.820;2023-03-23T07:21:15;4.97;;;3.55;;
48042;SDS011;33988;47.992;8.820;2023-03-23T07:23:42;6.65;;;3.80;;
48042;SDS011;33988;47.992;8.820;2023-03-23T07:26:11;7.35;;;3.85;;
48042;SDS011;33988;47.992;8.820;2023-03-23T07:28:38;5.97;;;3.08;;
48042;SDS011;33988;47.992;8.820;2023-03-23T07:31:07;6.13;;;3.55;;
48042;SDS011;33988;47.992;8.820;2023-03-23T07:33:34;10.70;;;3.45;;
48042;SDS011;33988;47.992;8.820;2023-03-23T07:36:01;5.50;;;2.92;;
48042;SDS011;33988;47.992;8.820;2023-03-23T07:38:28;3.90;;;2.55;;
48042;SDS011;33988;47.992;8.820;2023-03-23T07:40:55;8.30;;;2.97;;
48042;SDS011;33988;47.992;8.820;2023-03-23T07:43:22;4.93;;;2.97;;
48042;SDS011;33988;47.992;8.820;2023-03-23T07:45:50;7.22;;;3.30;;
48042;SDS011;33988;47.992;8.820;2023-03-23T07:48:17;5.45;;;3.88;;
48042;SDS011;33988;47.992;8.820;2023-03-23T07:50:42;5.47;;;3.42;;
48042;SDS011;33988;47.992;8.820;2023-03-23T07:53:08;4.15;;;3.13;;
48042;SDS011;33988;47.992;8.820;2023-03-23T07:55:34;4.10;;;3.25;;
48042;SDS011;33988;47.992;8.820;2023-03-23T07:58:03;5.28;;;2.83;;
48042;SDS011;33988;47.992;8.820;2023-03-23T08:00:29;3.05;;;2.15;;
48042;SDS011;33988;47.992;8.820;2023-03-23T08:02:57;2.78;;;1.98;;
48042;SDS011;33988;47.992;8.820;2023-03-23T08:05:26;2.70;;;2.17;;
48042;SDS011;33988;47.992;8.820;2023-03-23T08:07:55;4.90;;;2.33;;
48042;SDS011;33988;47.992;8.820;2023-03-23T08:10:21;4.78;;;1.80;;
48042;SDS011;33988;47.992;8.820;2023-03-23T08:12:50;2.65;;;1.70;;
48042;SDS011;33988;47.992;8.820;2023-03-23T08:15:18;2.33;;;1.58;;
48042;SDS011;33988;47.992;8.820;2023-03-23T08:17:49;2.95;;;1.60;;
48042;SDS011;33988;47.992;8.820;2023-03-23T08:20:17;4.18;;;2.00;;
48042;SDS011;33988;47.992;8.820;2023-03-23T08:22:52;2.50;;;1.55;;
48042;SDS011;33988;47.992;8.820;2023-03-23T08:25:21;3.30;;;1.50;;
48042;SDS011;33988;47.992;8.820;2023-03-23T08:27:50;1.90;;;1.40;;
48042;SDS011;33988;47.992;8.820;2023-03-23T08:30:21;1.65;;;1.30;;
48042;SDS011;33988;47.992;8.820;2023-03-23T08:32:53;1.30;;;1.20;;
48042;SDS011;33988;47.992;8.820;2023-03-23T08:35:20;2.03;;;1.45;;
48042;SDS011;33988;47.992;8.820;2023-03-23T08:37:46;1.42;;;1.10;;
48042;SDS011;33988;47.992;8.820;2023-03-23T08:40:16;2.10;;;1.25;;
48042;SDS011;33988;47.992;8.820;2023-03-23T08:42:44;2.97;;;1.35;;
48042;SDS011;33988;47.992;8.820;2023-03-23T08:45:14;1.80;;;1.45;;
48042;SDS011;33988;47.992;8.820;2023-03-23T08:47:43;2.53;;;1.27;;
48042;SDS011;33988;47.992;8.820;2023-03-23T08:50:18;2.03;;;1.20;;
48042;SDS011;33988;47.992;8.820;2023-03-23T08:52:49;1.42;;;1.25;;
48042;SDS011;33988;47.992;8.820;2023-03-23T08:55:16;1.83;;;1.20;;
48042;SDS011;33988;47.992;8.820;2023-03-23T08:57:45;1.27;;;1.17;;
48042;SDS011;33988;47.992;8.820;2023-03-23T09:00:13;1.90;;;0.90;;
48042;SDS011;33988;47.992;8.820;2023-03-23T09:02:50;1.10;;;1.02;;
48042;SDS011;33988;47.992;8.820;2023-03-23T09:05:19;2.05;;;1.10;;
48042;SDS011;33988;47.992;8.820;2023-03-23T09:07:50;1.85;;;1.02;;
48042;SDS011;33988;47.992;8.820;2023-03-23T09:10:18;1.15;;;0.80;;
48042;SDS011;33988;47.992;8.820;2023-03-23T09:12:45;1.73;;;0.80;;
48042;SDS011;33988;47.992;8.820;2023-03-23T09:15:15;1.30;;;0.90;;
48042;SDS011;33988;47.992;8.820;2023-03-23T09:17:46;1.48;;;1.00;;
48042;SDS011;33988;47.992;8.820;2023-03-23T09:20:21;1.77;;;1.02;;
48042;SDS011;33988;47.992;8.820;2023-03-23T09:22:50;1.42;;;0.90;;
48042;SDS011;33988;47.992;8.820;2023-03-23T09:25:24;1.38;;;1.08;;
48042;SDS011;33988;47.992;8.820;2023-03-23T09:27:53;1.00;;;0.90;;
48042;SDS011;33988;47.992;8.820;2023-03-23T09:30:26;1.67;;;1.17;;
48042;SDS011;33988;47.992;8.820;2023-03-23T09:32:55;2.55;;;0.90;;
48042;SDS011;33988;47.992;8.820;2023-03-23T09:35:26;1.95;;;1.20;;
48042;SDS011;33988;47.992;8.820;2023-03-23T09:37:53;1.88;;;1.00;;
48042;SDS011;33988;47.992;8.820;2023-03-23T09:40:21;2.72;;;1.10;;
48042;SDS011;33988;47.992;8.820;2023-03-23T09:49:01;1.13;;;0.73;;
48042;SDS011;33988;47.992;8.820;2023-03-23T09:51:54;1.23;;;1.05;;
48042;SDS011;33988;47.992;8.820;2023-03-23T10:05:22;0.75;;;0.73;;
48042;SDS011;33988;47.992;8.820;2023-03-23T10:07:52;1.48;;;0.90;;
48042;SDS011;33988;47.992;8.820;2023-03-23T10:10:20;0.70;;;0.68;;
48042;SDS011;33988;47.992;8.820;2023-03-23T10:13:09;1.52;;;1.00;;
48042;SDS011;33988;47.992;8.820;2023-03-23T10:15:50;1.80;;;0.73;;
48042;SDS011;33988;47.992;8.820;2023-03-23T10:18:31;1.02;;;0.93;;
48042;SDS011;33988;47.992;8.820;2023-03-23T10:21:19;1.33;;;1.00;;
48042;SDS011;33988;47.992;8.820;2023-03-23T10:29:40;1.00;;;0.90;;
48042;SDS011;33988;47.992;8.820;2023-03-23T10:32:16;1.00;;;0.90;;
48042;SDS011;33988;47.992;8.820;2023-03-23T10:35:04;1.40;;;0.90;;
48042;SDS011;33988;47.992;8.820;2023-03-23T10:37:39;1.27;;;0.98;;
48042;SDS011;33988;47.992;8.820;2023-03-23T10:40:17;1.00;;;0.90;;
48042;SDS011;33988;47.992;8.820;2023-03-23T10:42:49;1.77;;;1.02;;
48042;SDS011;33988;47.992;8.820;2023-03-23T10:45:23;0.85;;;0.85;;
48042;SDS011;33988;47.992;8.820;2023-03-23T10:47:55;0.77;;;0.77;;
48042;SDS011;33988;47.992;8.820;2023-03-23T10:50:42;0.90;;;0.90;;
48042;SDS011;33988;47.992;8.820;2023-03-23T10:53:19;1.48;;;0.82;;
48042;SDS011;33988;47.992;8.820;2023-03-23T10:56:04;2.17;;;1.10;;
48042;SDS011;33988;47.992;8.820;2023-03-23T10:58:42;1.00;;;0.88;;
48042;SDS011;33988;47.992;8.820;2023-03-23T11:01:09;2.95;;;0.98;;
48042;SDS011;33988;47.992;8.820;2023-03-23T11:06:27;1.00;;;0.90;;
48042;SDS011;33988;47.992;8.820;2023-03-23T11:09:12;1.08;;;0.98;;
48042;SDS011;33988;47.992;8.820;2023-03-23T11:11:43;1.30;;;1.20;;
48042;SDS011;33988;47.992;8.820;2023-03-23T11:16:56;1.10;;;0.95;;
48042;SDS011;33988;47.992;8.820;2023-03-23T11:19:31;1.55;;;0.90;;
48042;SDS011;33988;47.992;8.820;2023-03-23T11:24:34;1.30;;;1.05;;
48042;SDS011;33988;47.992;8.820;2023-03-23T11:27:09;1.67;;;0.90;;
48042;SDS011;33988;47.992;8.820;2023-03-23T11:29:44;2.38;;;1.10;;
48042;SDS011;33988;47.992;8.820;2023-03-23T11:32:18;1.65;;;1.10;;
48042;SDS011;33988;47.992;8.820;2023-03-23T11:34:52;1.20;;;0.88;;
48042;SDS011;33988;47.992;8.820;2023-03-23T11:37:33;1.15;;;1.05;;
48042;SDS011;33988;47.992;8.820;2023-03-23T11:40:20;1.45;;;1.00;;
48042;SDS011;33988;47.992;8.820;2023-03-23T11:45:22;1.67;;;1.17;;
48042;SDS011;33988;47.992;8.820;2023-03-23T11:48:06;1.90;;;0.90;;
48042;SDS011;33988;47.992;8.820;2023-03-23T11:56:03;1.20;;;0.90;;
48042;SDS011;33988;47.992;8.820;2023-03-23T11:58:41;1.65;;;0.98;;
48042;SDS011;33988;47.992;8.820;2023-03-23T12:10:43;1.50;;;1.00;;
48042;SDS011;33988;47.992;8.820;2023-03-23T12:13:52;1.38;;;0.98;;
48042;SDS011;33988;47.992;8.820;2023-03-23T12:21:43;1.73;;;1.13;;
48042;SDS011;33988;47.992;8.820;2023-03-23T12:24:36;1.08;;;0.98;;
48042;SDS011;33988;47.992;8.820;2023-03-23T13:00:24;2.75;;;1.50;;
48042;SDS011;33988;47.992;8.820;2023-03-23T13:02:56;2.50;;;1.70;;
48042;SDS011;33988;47.992;8.820;2023-03-23T13:08:21;1.65;;;1.10;;
48042;SDS011;33988;47.992;8.820;2023-03-23T13:11:02;2.58;;;1.65;;
48042;SDS011;33988;47.992;8.820;2023-03-23T13:13:55;1.50;;;1.30;;
48042;SDS011;33988;47.992;8.820;2023-03-23T13:16:35;1.33;;;1.10;;
48042;SDS011;33988;47.992;8.820;2023-03-23T13:22:06;1.10;;;1.00;;
48042;SDS011;33988;47.992;8.820;2023-03-23T13:28:23;1.90;;;1.63;;
48042;SDS011;33988;47.992;8.820;2023-03-23T13:36:53;1.15;;;1.02;;
48042;SDS011;33988;47.992;8.820;2023-03-23T13:39:33;1.75;;;1.30;;
48042;SDS011;33988;47.992;8.820;2023-03-23T13:50:02;1.30;;;1.13;;
48042;SDS011;33988;47.992;8.820;2023-03-23T14:10:59;2.10;;;1.25;;
48042;SDS011;33988;47.992;8.820;2023-03-23T14:16:36;3.13;;;1.50;;
48042;SDS011;33988;47.992;8.820;2023-03-23T14:19:26;1.80;;;1.40;;
48042;SDS011;33988;47.992;8.820;2023-03-23T14:21:55;2.10;;;1.48;;
48042;SDS011;33988;47.992;8.820;2023-03-23T14:24:24;2.35;;;1.30;;
48042;SDS011;33988;47.992;8.820;2023-03-23T14:29:41;1.40;;;1.30;;
48042;SDS011;33988;47.992;8.820;2023-03-23T14:32:12;1.80;;;1.33;;
48042;SDS011;33988;47.992;8.820;2023-03-23T14:34:42;4.03;;;1.55;;
48042;SDS011;33988;47.992;8.820;2023-03-23T14:37:12;4.63;;;1.60;;
48042;SDS011;33988;47.992;8.820;2023-03-23T14:39:43;2.45;;;1.70;;
48042;SDS011;33988;47.992;8.820;2023-03-23T14:42:16;1.80;;;1.35;;
48042;SDS011;33988;47.992;8.820;2023-03-23T14:44:47;1.88;;;1.58;;
48042;SDS011;33988;47.992;8.820;2023-03-23T14:49:58;1.98;;;1.30;;
48042;SDS011;33988;47.992;8.820;2023-03-23T14:52:29;2.90;;;1.30;;
48042;SDS011;33988;47.992;8.820;2023-03-23T14:55:10;3.00;;;1.67;;
48042;SDS011;33988;47.992;8.820;2023-03-23T14:57:44;2.20;;;1.60;;
48042;SDS011;33988;47.992;8.820;2023-03-23T15:00:30;1.50;;;1.40;;
48042;SDS011;33988;47.992;8.820;2023-03-23T15:03:04;3.28;;;1.48;;
48042;SDS011;33988;47.992;8.820;2023-03-23T15:05:50;3.90;;;1.30;;
48042;SDS011;33988;47.992;8.820;2023-03-23T15:08:24;1.95;;;1.50;;
48042;SDS011;33988;47.992;8.820;2023-03-23T15:11:04;2.08;;;1.58;;
48042;SDS011;33988;47.992;8.820;2023-03-23T15:13:46;1.80;;;1.48;;
48042;SDS011;33988;47.992;8.820;2023-03-23T15:19:04;2.53;;;1.20;;
48042;SDS011;33988;47.992;8.820;2023-03-23T15:21:45;2.42;;;1.40;;
48042;SDS011;33988;47.992;8.820;2023-03-23T15:27:10;2.55;;;1.38;;
48042;SDS011;33988;47.992;8.820;2023-03-23T15:29:54;1.98;;;1.52;;
48042;SDS011;33988;47.992;8.820;2023-03-23T15:32:44;2.08;;;1.48;;
48042;SDS011;33988;47.992;8.820;2023-03-23T15:35:19;2.13;;;1.40;;
48042;SDS011;33988;47.992;8.820;2023-03-23T15:37:49;1.75;;;1.50;;
48042;SDS011;33988;47.992;8.820;2023-03-23T15:40:21;3.90;;;1.70;;
48042;SDS011;33988;47.992;8.820;2023-03-23T15:42:50;1.95;;;1.50;;
48042;SDS011;33988;47.992;8.820;2023-03-23T15:45:51;1.73;;;1.30;;
48042;SDS011;33988;47.992;8.820;2023-03-23T15:49:13;2.38;;;1.50;;
48042;SDS011;33988;47.992;8.820;2023-03-23T15:51:26;1.95;;;1.38;;
48042;SDS011;33988;47.992;8.820;2023-03-23T15:53:54;2.85;;;1.45;;
48042;SDS011;33988;47.992;8.820;2023-03-23T15:56:24;2.38;;;1.70;;
48042;SDS011;33988;47.992;8.820;2023-03-23T15:58:51;3.13;;;1.80;;
48042;SDS011;33988;47.992;8.820;2023-03-23T16:01:28;1.52;;;1.35;;
48042;SDS011;33988;47.992;8.820;2023-03-23T16:04:01;2.28;;;1.60;;
48042;SDS011;33988;47.992;8.820;2023-03-23T16:06:33;2.10;;;1.80;;
48042;SDS011;33988;47.992;8.820;2023-03-23T16:09:01;2.30;;;1.60;;
48042;SDS011;33988;47.992;8.820;2023-03-23T16:11:32;1.67;;;1.55;;
48042;SDS011;33988;47.992;8.820;2023-03-23T16:14:01;2.85;;;1.70;;
48042;SDS011;33988;47.992;8.820;2023-03-23T16:16:30;1.98;;;1.63;;
48042;SDS011;33988;47.992;8.820;2023-03-23T16:19:03;1.95;;;1.70;;
48042;SDS011;33988;47.992;8.820;2023-03-23T16:21:31;4.05;;;1.63;;
48042;SDS011;33988;47.992;8.820;2023-03-23T16:24:01;1.98;;;1.58;;
48042;SDS011;33988;47.992;8.820;2023-03-23T16:26:30;1.55;;;1.42;;
48042;SDS011;33988;47.992;8.820;2023-03-23T16:29:00;3.40;;;2.30;;
48042;SDS011;33988;47.992;8.820;2023-03-23T16:31:45;1.70;;;1.35;;
48042;SDS011;33988;47.992;8.820;2023-03-23T16:34:15;1.92;;;1.38;;
48042;SDS011;33988;47.992;8.820;2023-03-23T16:36:42;2.25;;;1.75;;
48042;SDS011;33988;47.992;8.820;2023-03-23T16:39:12;3.67;;;2.35;;
48042;SDS011;33988;47.992;8.820;2023-03-23T16:41:40;3.13;;;2.15;;
48042;SDS011;33988;47.992;8.820;2023-03-23T16:44:07;3.03;;;1.90;;
48042;SDS011;33988;47.992;8.820;2023-03-23T16:46:34;2.72;;;2.10;;
48042;SDS011;33988;47.992;8.820;2023-03-23T16:49:01;1.70;;;1.60;;
48042;SDS011;33988;47.992;8.820;2023-03-23T16:51:28;2.53;;;1.40;;
48042;SDS011;33988;47.992;8.820;2023-03-23T16:53:55;2.00;;;1.60;;
48042;SDS011;33988;47.992;8.820;2023-03-23T16:56:22;3.15;;;1.52;;
48042;SDS011;33988;47.992;8.820;2023-03-23T16:58:49;1.77;;;1.50;;
48042;SDS011;33988;47.992;8.820;2023-03-23T17:01:16;1.75;;;1.58;;
48042;SDS011;33988;47.992;8.820;2023-03-23T17:03:47;2.13;;;1.67;;
48042;SDS011;33988;47.992;8.820;2023-03-23T17:06:14;2.28;;;1.73;;
48042;SDS011;33988;47.992;8.820;2023-03-23T17:08:44;1.95;;;1.48;;
48042;SDS011;33988;47.992;8.820;2023-03-23T17:11:11;2.15;;;1.40;;
48042;SDS011;33988;47.992;8.820;2023-03-23T17:13:38;1.95;;;1.52;;
48042;SDS011;33988;47.992;8.820;2023-03-23T17:16:07;3.67;;;1.42;;
48042;SDS011;33988;47.992;8.820;2023-03-23T17:18:37;2.33;;;1.60;;
48042;SDS011;33988;47.992;8.820;2023-03-23T17:21:04;3.60;;;1.90;;
48042;SDS011;33988;47.992;8.820;2023-03-23T17:23:32;2.05;;;1.30;;
48042;SDS011;33988;47.992;8.820;2023-03-23T17:25:58;1.92;;;1.60;;
48042;SDS011;33988;47.992;8.820;2023-03-23T17:28:26;2.55;;;1.58;;
48042;SDS011;33988;47.992;8.820;2023-03-23T17:30:55;2.60;;;1.90;;
48042;SDS011;33988;47.992;8.820;2023-03-23T17:33:22;7.72;;;2.15;;
48042;SDS011;33988;47.992;8.820;2023-03-23T17:35:49;13.93;;;8.68;;
48042;SDS011;33988;47.992;8.820;2023-03-23T17:38:17;10.10;;;5.90;;
48042;SDS011;33988;47.992;8.820;2023-03-23T17:40:47;5.05;;;3.83;;
48042;SDS011;33988;47.992;8.820;2023-03-23T17:43:21;3.00;;;2.55;;
48042;SDS011;33988;47.992;8.820;2023-03-23T17:45:50;4.97;;;2.20;;
48042;SDS011;33988;47.992;8.820;2023-03-23T17:48:17;2.17;;;1.98;;
48042;SDS011;33988;47.992;8.820;2023-03-23T17:50:47;4.25;;;2.38;;
48042;SDS011;33988;47.992;8.820;2023-03-23T17:53:23;11.27;;;6.35;;
48042;SDS011;33988;47.992;8.820;2023-03-23T17:55:54;6.50;;;4.18;;
48042;SDS011;33988;47.992;8.820;2023-03-23T17:58:24;6.30;;;4.22;;
48042;SDS011;33988;47.992;8.820;2023-03-23T18:00:52;4.68;;;3.45;;
48042;SDS011;33988;47.992;8.820;2023-03-23T18:03:21;3.70;;;2.80;;
48042;SDS011;33988;47.992;8.820;2023-03-23T18:05:49;3.30;;;2.67;;
48042;SDS011;33988;47.992;8.820;2023-03-23T18:08:17;3.25;;;2.28;;
48042;SDS011;33988;47.992;8.820;2023-03-23T18:10:44;3.33;;;2.35;;
48042;SDS011;33988;47.992;8.820;2023-03-23T18:13:12;3.15;;;2.33;;